Time;durP1;ratioP1;P1;durP2;ratioP2;P2;SDS_P1;SDS_P2;PMS_P1;PMS_P2;Temp;Humidity;BMP_temperature;BMP_pressure;BME280_temperature;BME280_humidity;BME280_pressure;Samples;Min_cycle;Max_cycle;Signal;HPM_P1;HPM_P2
2023/10/03 00:00:34;;;;;;;14.02;6.28;;;;;;;;;;6251522;28;20187;-65
2023/10/03 00:03:37;;;;;;;12.27;6.80;;;;;;;;;;6247940;28;20506;-65
2023/10/03 00:06:41;;;;;;;10.45;6.68;;;;;;;;;;6256575;28;20134;-65
2023/10/03 00:09:44;;;;;;;10.48;6.40;;;;;;;;;;6260724;28;20049;-65
2023/10/03 00:12:48;;;;;;;14.50;7.20;;;;;;;;;;6235359;28;20223;-64
2023/10/03 00:15:50;;;;;;;13.35;6.05;;;;;;;;;;6254687;28;20037;-65
2023/10/03 00:18:52;;;;;;;9.60;5.97;;;;;;;;;;6255759;28;20517;-65
2023/10/03 00:21:55;;;;;;;11.32;5.78;;;;;;;;;;6253896;28;20057;-64
2023/10/03 00:24:57;;;;;;;13.95;6.82;;;;;;;;;;6246605;28;20048;-65
2023/10/03 00:27:59;;;;;;;12.15;6.80;;;;;;;;;;6247004;28;20057;-65
2023/10/03 00:31:09;;;;;;;15.73;6.25;;;;;;;;;;6242138;28;20210;-64
2023/10/03 00:34:12;;;;;;;10.82;5.82;;;;;;;;;;6247172;28;20065;-64
2023/10/03 00:37:15;;;;;;;13.57;6.53;;;;;;;;;;6230747;28;20048;-64
2023/10/03 00:43:24;;;;;;;9.98;5.93;;;;;;;;;;6231639;28;20596;-65
2023/10/03 00:46:29;;;;;;;11.80;6.72;;;;;;;;;;6251668;28;20191;-64
2023/10/03 00:49:31;;;;;;;;;;;;;;;;;;6251061;28;21116;-64
2023/10/03 00:52:35;;;;;;;10.52;6.07;;;;;;;;;;6237188;28;19925;-65
2023/10/03 00:55:38;;;;;;;13.30;6.60;;;;;;;;;;6240472;28;20065;-64
2023/10/03 00:58:41;;;;;;;13.07;6.50;;;;;;;;;;6253699;28;20048;-64
2023/10/03 01:01:46;;;;;;;10.77;6.28;;;;;;;;;;6256415;28;20045;-64
2023/10/03 01:04:49;;;;;;;;;;;;;;;;;;6248624;28;20049;-64
2023/10/03 01:07:51;;;;;;;12.63;6.18;;;;;;;;;;6256633;28;19931;-64
2023/10/03 01:10:55;;;;;;;11.57;5.90;;;;;;;;;;6250504;28;20048;-64
2023/10/03 01:13:58;;;;;;;12.95;7.50;;;;;;;;;;6226875;28;20042;-64
2023/10/03 01:17:02;;;;;;;8.85;5.85;;;;;;;;;;6247929;28;20106;-64
2023/10/03 01:20:16;;;;;;;12.38;6.05;;;;;;;;;;6247867;28;20061;-64
2023/10/03 01:23:19;;;;;;;11.75;6.53;;;;;;;;;;6221518;28;20058;-64
2023/10/03 01:26:21;;;;;;;9.40;6.00;;;;;;;;;;6255808;28;20053;-65
2023/10/03 01:29:23;;;;;;;12.48;5.88;;;;;;;;;;6248146;28;20049;-65
2023/10/03 01:32:30;;;;;;;9.98;5.75;;;;;;;;;;6255991;28;20548;-65
2023/10/03 01:35:33;;;;;;;13.48;5.72;;;;;;;;;;6229794;28;20044;-65
2023/10/03 01:38:37;;;;;;;11.45;7.20;;;;;;;;;;6240878;28;20041;-65
2023/10/03 01:41:40;;;;;;;11.85;5.43;;;;;;;;;;6242390;28;20060;-66
2023/10/03 01:44:42;;;;;;;11.68;5.78;;;;;;;;;;6233233;28;20045;-65
2023/10/03 01:47:46;;;;;;;13.77;7.13;;;;;;;;;;6251355;28;20049;-65
2023/10/03 01:50:52;;;;;;;10.90;6.72;;;;;;;;;;6245350;28;20095;-65
2023/10/03 01:53:55;;;;;;;11.88;6.78;;;;;;;;;;6251628;28;20122;-65
2023/10/03 01:57:00;;;;;;;13.18;6.72;;;;;;;;;;6242762;28;20137;-65
2023/10/03 02:03:24;;;;;;;20.52;6.93;;;;;;;;;;6245357;28;20048;-65
2023/10/03 02:06:27;;;;;;;14.00;7.35;;;;;;;;;;6250262;28;20131;-65
2023/10/03 02:09:29;;;;;;;16.77;7.70;;;;;;;;;;6253496;28;20045;-65
2023/10/03 02:12:32;;;;;;;13.32;6.88;;;;;;;;;;6259102;28;20521;-64
2023/10/03 02:15:36;;;;;;;18.02;8.10;;;;;;;;;;6223181;28;20529;-66
2023/10/03 02:18:40;;;;;;;19.00;9.25;;;;;;;;;;6242669;28;20059;-65
2023/10/03 02:21:42;;;;;;;15.75;7.55;;;;;;;;;;6253217;28;20648;-65
2023/10/03 02:24:45;;;;;;;13.05;7.22;;;;;;;;;;6257108;28;20488;-65
2023/10/03 02:27:47;;;;;;;15.98;7.65;;;;;;;;;;6238697;28;20049;-66
2023/10/03 02:30:50;;;;;;;13.27;8.30;;;;;;;;;;6246819;28;20103;-65
2023/10/03 02:33:53;;;;;;;16.40;8.40;;;;;;;;;;6255091;28;20048;-65
2023/10/03 02:36:57;;;;;;;12.27;7.05;;;;;;;;;;6254471;28;20071;-65
2023/10/03 02:40:00;;;;;;;15.30;11.02;;;;;;;;;;6256963;28;20291;-65
2023/10/03 02:43:04;;;;;;;15.40;8.55;;;;;;;;;;6241026;28;20181;-64
2023/10/03 02:46:11;;;;;;;15.30;8.68;;;;;;;;;;6234767;28;20037;-64
2023/10/03 02:49:18;;;;;;;16.70;7.55;;;;;;;;;;6220251;28;20103;-64
2023/10/03 02:52:21;;;;;;;11.75;7.38;;;;;;;;;;6249666;28;20075;-64
2023/10/03 02:55:23;;;;;;;14.65;8.43;;;;;;;;;;6238124;28;20046;-64
2023/10/03 02:58:25;;;;;;;14.32;7.57;;;;;;;;;;6238057;28;20140;-64
2023/10/03 03:01:30;;;;;;;15.73;11.48;;;;;;;;;;6232572;28;20541;-64
2023/10/03 03:04:33;;;;;;;11.63;6.72;;;;;;;;;;6222074;28;20857;-65
2023/10/03 03:07:36;;;;;;;13.40;8.70;;;;;;;;;;6251823;28;20052;-65
2023/10/03 03:10:41;;;;;;;12.10;7.30;;;;;;;;;;6228835;28;20055;-65
2023/10/03 03:13:44;;;;;;;15.85;9.85;;;;;;;;;;6249892;28;20045;-65
2023/10/03 03:16:47;;;;;;;14.07;8.52;;;;;;;;;;6234034;28;20140;-65
2023/10/03 03:19:52;;;;;;;13.95;7.57;;;;;;;;;;6250945;28;20049;-65
2023/10/03 03:23:00;;;;;;;12.23;7.70;;;;;;;;;;6256434;28;20052;-64
2023/10/03 03:29:31;;;;;;;16.02;8.27;;;;;;;;;;6251180;28;20049;-65
2023/10/03 03:32:33;;;;;;;18.08;8.27;;;;;;;;;;6246731;28;20144;-65
2023/10/03 03:35:39;;;;;;;13.10;6.78;;;;;;;;;;6257381;28;20044;-65
2023/10/03 03:38:41;;;;;;;14.00;10.77;;;;;;;;;;6248346;28;20433;-64
2023/10/03 03:41:43;;;;;;;13.63;8.52;;;;;;;;;;6258975;28;20044;-65
2023/10/03 03:44:46;;;;;;;13.85;8.40;;;;;;;;;;6254070;28;20045;-65
2023/10/03 03:47:51;;;;;;;14.75;6.90;;;;;;;;;;6255445;28;20057;-64
2023/10/03 03:50:56;;;;;;;19.83;8.35;;;;;;;;;;6254560;28;20160;-65
2023/10/03 03:54:00;;;;;;;19.77;7.10;;;;;;;;;;6263493;28;20063;-65
2023/10/03 03:57:02;;;;;;;14.48;7.72;;;;;;;;;;6247503;28;20056;-65
2023/10/03 04:00:12;;;;;;;14.27;7.40;;;;;;;;;;6251619;28;20226;-65
2023/10/03 04:03:15;;;;;;;17.13;8.52;;;;;;;;;;6262007;28;20056;-64
2023/10/03 04:06:20;;;;;;;30.20;12.52;;;;;;;;;;6264608;28;20047;-65
2023/10/03 04:09:23;;;;;;;19.48;10.40;;;;;;;;;;6256266;28;20118;-65
2023/10/03 04:12:25;;;;;;;17.20;9.25;;;;;;;;;;6244755;28;20091;-65
2023/10/03 04:15:28;;;;;;;16.30;7.93;;;;;;;;;;6259268;28;20044;-65
2023/10/03 04:18:30;;;;;;;22.77;8.63;;;;;;;;;;6251399;28;20049;-65
2023/10/03 04:21:32;;;;;;;14.38;8.07;;;;;;;;;;6250726;28;20054;-65
2023/10/03 04:24:34;;;;;;;12.05;7.57;;;;;;;;;;6251585;28;20056;-65
2023/10/03 04:27:36;;;;;;;13.15;8.13;;;;;;;;;;6259267;28;20072;-65
2023/10/03 04:30:39;;;;;;;13.60;8.40;;;;;;;;;;6266175;28;20133;-65
2023/10/03 04:33:41;;;;;;;13.25;8.10;;;;;;;;;;6257089;28;20052;-64
2023/10/03 04:36:45;;;;;;;14.65;8.27;;;;;;;;;;6250890;28;20041;-64
2023/10/03 04:39:47;;;;;;;17.73;9.15;;;;;;;;;;6256335;28;20049;-64
2023/10/03 04:42:49;;;;;;;17.10;8.10;;;;;;;;;;6258596;28;20148;-65
2023/10/03 04:45:52;;;;;;;17.98;8.32;;;;;;;;;;6250013;28;20094;-65
2023/10/03 04:48:54;;;;;;;14.65;8.90;;;;;;;;;;6250533;28;20979;-66
2023/10/03 04:51:56;;;;;;;18.25;9.77;;;;;;;;;;6258272;28;20371;-66
2023/10/03 04:54:58;;;;;;;16.63;12.05;;;;;;;;;;6234882;28;20854;-66
2023/10/03 04:58:00;;;;;;;15.07;7.88;;;;;;;;;;6245103;28;20107;-65
2023/10/03 05:01:02;;;;;;;14.57;8.13;;;;;;;;;;6244998;28;20055;-66
2023/10/03 05:04:05;;;;;;;16.02;8.85;;;;;;;;;;6251925;28;20055;-64
2023/10/03 05:07:10;;;;;;;14.20;7.78;;;;;;;;;;6252324;28;20045;-65
2023/10/03 05:10:12;;;;;;;13.82;8.55;;;;;;;;;;6259752;28;20093;-65
2023/10/03 05:13:14;;;;;;;14.32;8.55;;;;;;;;;;6258628;28;20045;-65
2023/10/03 05:16:20;;;;;;;;;;;;;;;;;;6255310;28;20046;-65
2023/10/03 05:19:22;;;;;;;20.42;8.30;;;;;;;;;;6255851;28;19986;-65
2023/10/03 05:22:29;;;;;;;19.17;9.38;;;;;;;;;;6252161;28;20136;-64
2023/10/03 05:25:36;;;;;;;13.30;7.65;;;;;;;;;;6234147;28;20048;-65
2023/10/03 05:28:39;;;;;;;16.33;8.40;;;;;;;;;;6249849;28;20042;-65
2023/10/03 05:31:41;;;;;;;13.07;7.80;;;;;;;;;;6253579;28;20068;-65
2023/10/03 05:34:44;;;;;;;19.08;8.90;;;;;;;;;;6220781;28;20041;-65
2023/10/03 05:37:47;;;;;;;17.48;7.95;;;;;;;;;;6251471;28;20178;-65
2023/10/03 05:40:49;;;;;;;16.27;7.25;;;;;;;;;;6251025;28;20061;-65
2023/10/03 05:43:52;;;;;;;12.52;6.63;;;;;;;;;;6257394;28;20118;-65
2023/10/03 05:46:56;;;;;;;16.92;8.45;;;;;;;;;;6257244;28;20111;-65
2023/10/03 05:50:00;;;;;;;13.15;6.25;;;;;;;;;;6249900;28;20191;-64
2023/10/03 05:53:02;;;;;;;14.77;7.30;;;;;;;;;;6247907;28;20935;-65
2023/10/03 05:56:05;;;;;;;29.55;15.77;;;;;;;;;;6254504;28;20041;-65
2023/10/03 05:59:07;;;;;;;12.20;6.55;;;;;;;;;;6259195;28;20604;-65
2023/10/03 06:02:09;;;;;;;11.13;6.40;;;;;;;;;;6229596;28;20053;-65
2023/10/03 06:05:12;;;;;;;9.98;6.47;;;;;;;;;;6246762;28;20519;-65
2023/10/03 06:08:15;;;;;;;13.88;6.25;;;;;;;;;;6250810;28;20092;-66
2023/10/03 06:11:17;;;;;;;13.18;7.03;;;;;;;;;;6257420;28;20049;-65
2023/10/03 06:14:19;;;;;;;18.30;7.18;;;;;;;;;;6250683;28;20036;-64
2023/10/03 06:17:21;;;;;;;15.15;7.63;;;;;;;;;;6249937;28;20053;-65
2023/10/03 06:20:24;;;;;;;12.32;7.00;;;;;;;;;;6243014;28;20549;-67
2023/10/03 06:23:27;;;;;;;15.35;7.20;;;;;;;;;;6243942;28;20045;-66
2023/10/03 06:26:29;;;;;;;14.02;6.97;;;;;;;;;;6245929;28;20065;-65
2023/10/03 06:29:31;;;;;;;18.20;8.50;;;;;;;;;;6259265;28;20052;-66
2023/10/03 06:32:33;;;;;;;13.35;6.53;;;;;;;;;;6245542;28;20053;-65
2023/10/03 06:35:36;;;;;;;16.42;7.03;;;;;;;;;;6259411;28;20092;-65
2023/10/03 06:38:41;;;;;;;14.65;6.65;;;;;;;;;;6232287;28;20121;-65
2023/10/03 06:41:44;;;;;;;;;;;;;;;;;;6252020;28;20047;-66
2023/10/03 06:44:47;;;;;;;14.88;7.40;;;;;;;;;;6260809;28;19935;-65
2023/10/03 06:47:49;;;;;;;12.27;6.63;;;;;;;;;;6252063;28;20052;-65
2023/10/03 06:50:51;;;;;;;17.25;7.50;;;;;;;;;;6259662;28;20045;-65
2023/10/03 06:53:53;;;;;;;15.68;7.20;;;;;;;;;;6255634;28;20036;-65
2023/10/03 06:56:56;;;;;;;17.15;7.53;;;;;;;;;;6245658;28;20729;-66
2023/10/03 07:00:00;;;;;;;18.48;7.38;;;;;;;;;;6253466;28;20053;-66
2023/10/03 07:03:03;;;;;;;13.70;6.07;;;;;;;;;;6252846;28;20175;-65
2023/10/03 07:06:07;;;;;;;12.15;6.22;;;;;;;;;;6240082;28;20052;-66
2023/10/03 07:09:10;;;;;;;14.25;6.25;;;;;;;;;;6252602;28;20052;-65
2023/10/03 07:12:13;;;;;;;12.02;6.47;;;;;;;;;;6256445;28;20049;-66
2023/10/03 07:15:15;;;;;;;9.80;5.70;;;;;;;;;;6255750;28;20048;-65
2023/10/03 07:18:17;;;;;;;13.23;5.85;;;;;;;;;;6260040;28;20053;-64
2023/10/03 07:21:21;;;;;;;13.10;5.65;;;;;;;;;;6258697;28;20044;-65
2023/10/03 07:24:25;;;;;;;11.80;7.13;;;;;;;;;;6254174;28;20056;-65
2023/10/03 07:27:27;;;;;;;11.85;6.20;;;;;;;;;;6237341;28;20041;-65
2023/10/03 07:30:29;;;;;;;18.02;6.22;;;;;;;;;;6244473;28;20045;-65
2023/10/03 07:33:31;;;;;;;12.38;5.95;;;;;;;;;;6248195;28;20060;-65
2023/10/03 07:36:33;;;;;;;15.82;5.88;;;;;;;;;;6252116;28;20041;-65
2023/10/03 07:39:35;;;;;;;10.90;5.70;;;;;;;;;;6229273;28;20044;-65
2023/10/03 07:42:40;;;;;;;12.40;6.63;;;;;;;;;;6239463;28;20446;-65
2023/10/03 07:45:43;;;;;;;12.95;5.32;;;;;;;;;;6235007;28;20048;-65
2023/10/03 07:48:45;;;;;;;10.90;6.22;;;;;;;;;;6232325;28;20514;-65
2023/10/03 07:51:49;;;;;;;10.35;8.68;;;;;;;;;;6241493;28;20254;-65
2023/10/03 07:54:55;;;;;;;15.23;5.72;;;;;;;;;;6249429;28;20092;-65
2023/10/03 07:57:58;;;;;;;8.52;4.95;;;;;;;;;;6257117;28;20548;-65
2023/10/03 08:01:04;;;;;;;11.45;5.50;;;;;;;;;;6257737;28;20049;-65
2023/10/03 08:04:08;;;;;;;15.27;5.57;;;;;;;;;;6241937;28;20045;-65
2023/10/03 08:07:21;;;;;;;11.15;4.05;;;;;;;;;;6245770;28;20946;-64
2023/10/03 08:10:29;;;;;;;7.68;4.82;;;;;;;;;;6257141;28;20095;-64
2023/10/03 08:13:31;;;;;;;9.25;4.70;;;;;;;;;;6246596;28;20853;-65
2023/10/03 08:16:34;;;;;;;13.30;6.05;;;;;;;;;;6225485;28;20033;-64
2023/10/03 08:19:40;;;;;;;11.38;4.93;;;;;;;;;;6246839;28;20060;-65
2023/10/03 08:22:50;;;;;;;11.05;5.15;;;;;;;;;;6255098;28;20045;-66
2023/10/03 08:26:01;;;;;;;13.90;4.55;;;;;;;;;;6236119;28;20510;-66
2023/10/03 08:29:07;;;;;;;12.95;4.40;;;;;;;;;;6255264;28;20088;-66
2023/10/03 08:32:10;;;;;;;8.20;4.38;;;;;;;;;;6261398;28;20049;-66
2023/10/03 08:35:12;;;;;;;8.77;4.45;;;;;;;;;;6246403;28;20534;-65
2023/10/03 08:38:14;;;;;;;8.55;4.03;;;;;;;;;;6221360;28;20052;-65
2023/10/03 08:41:23;;;;;;;9.38;4.88;;;;;;;;;;6256203;28;20126;-65
2023/10/03 08:44:31;;;;;;;8.60;5.25;;;;;;;;;;6233033;28;20053;-65
2023/10/03 08:47:36;;;;;;;9.32;4.63;;;;;;;;;;6241947;28;20041;-65
2023/10/03 08:50:46;;;;;;;8.88;4.72;;;;;;;;;;6250295;28;20092;-65
2023/10/03 08:53:49;;;;;;;8.55;4.03;;;;;;;;;;6250672;28;20132;-65
2023/10/03 08:56:59;;;;;;;12.00;4.75;;;;;;;;;;6255160;28;20056;-65
2023/10/03 09:00:09;;;;;;;13.25;5.20;;;;;;;;;;6232987;28;20067;-66
2023/10/03 09:03:13;;;;;;;9.48;4.28;;;;;;;;;;6254613;28;20045;-65
2023/10/03 09:06:19;;;;;;;12.57;4.82;;;;;;;;;;6256135;28;20052;-65
2023/10/03 09:09:22;;;;;;;11.30;4.43;;;;;;;;;;6256565;28;20556;-65
2023/10/03 09:12:25;;;;;;;10.13;5.05;;;;;;;;;;6252808;28;20140;-65
2023/10/03 09:15:27;;;;;;;11.25;4.10;;;;;;;;;;6253876;28;20054;-65
2023/10/03 09:18:40;;;;;;;10.73;4.43;;;;;;;;;;6258127;28;20049;-65
2023/10/03 09:21:45;;;;;;;11.95;7.90;;;;;;;;;;6253944;28;20734;-65
2023/10/03 09:24:47;;;;;;;10.35;4.90;;;;;;;;;;6259424;28;20045;-65
2023/10/03 09:27:59;;;;;;;10.80;4.78;;;;;;;;;;6263460;28;20036;-65
2023/10/03 09:31:08;;;;;;;12.15;4.20;;;;;;;;;;6250015;28;20107;-65
2023/10/03 09:34:13;;;;;;;10.77;5.05;;;;;;;;;;6264507;28;20480;-65
2023/10/03 09:37:17;;;;;;;11.68;4.10;;;;;;;;;;6259034;28;20045;-65
2023/10/03 09:40:19;;;;;;;9.40;4.28;;;;;;;;;;6247446;28;20044;-66
2023/10/03 09:43:27;;;;;;;9.02;3.35;;;;;;;;;;6244688;28;20496;-65
2023/10/03 09:46:41;;;;;;;10.70;3.97;;;;;;;;;;6259206;28;20056;-68
2023/10/03 09:49:44;;;;;;;11.35;4.30;;;;;;;;;;6232998;28;20518;-66
2023/10/03 09:52:49;;;;;;;7.85;3.88;;;;;;;;;;6229197;28;20053;-65
2023/10/03 09:55:52;;;;;;;10.70;4.38;;;;;;;;;;6251503;28;20077;-65
2023/10/03 09:58:55;;;;;;;12.52;5.57;;;;;;;;;;6232380;28;20037;-66
2023/10/03 10:01:59;;;;;;;11.07;4.82;;;;;;;;;;6230645;28;20048;-66
2023/10/03 10:05:08;;;;;;;11.18;4.38;;;;;;;;;;6232520;28;20067;-66
2023/10/03 10:08:32;;;;;;;10.63;4.60;;;;;;;;;;6259985;28;20052;-66
2023/10/03 10:11:57;;;;;;;;;;;;;;;;;;6235022;28;20136;-66
2023/10/03 10:15:00;;;;;;;11.30;3.83;;;;;;;;;;6253032;28;19978;-66
2023/10/03 10:18:10;;;;;;;11.68;4.43;;;;;;;;;;6245953;28;20056;-66
2023/10/03 10:21:31;;;;;;;13.02;7.32;;;;;;;;;;6249931;28;20446;-66
2023/10/03 10:24:40;;;;;;;10.73;4.50;;;;;;;;;;6246237;28;20041;-66
2023/10/03 10:27:43;;;;;;;13.88;7.55;;;;;;;;;;6246062;28;20437;-66
2023/10/03 10:31:10;;;;;;;11.57;4.55;;;;;;;;;;6245226;28;20057;-66
2023/10/03 10:34:21;;;;;;;9.98;4.20;;;;;;;;;;6248397;28;20033;-67
2023/10/03 10:37:23;;;;;;;15.32;4.35;;;;;;;;;;6255835;28;20048;-66
2023/10/03 10:40:29;;;;;;;10.90;4.95;;;;;;;;;;6252432;28;20064;-66
2023/10/03 10:43:34;;;;;;;12.57;4.38;;;;;;;;;;6251375;28;20060;-66
2023/10/03 10:46:44;;;;;;;9.60;4.05;;;;;;;;;;6240628;28;20053;-66
2023/10/03 10:50:00;;;;;;;8.93;4.72;;;;;;;;;;6250746;28;20644;-65
2023/10/03 10:53:22;;;;;;;21.25;5.30;;;;;;;;;;6256992;28;20142;-66
2023/10/03 10:56:26;;;;;;;14.25;4.50;;;;;;;;;;6242809;28;20049;-66
2023/10/03 10:59:35;;;;;;;9.98;3.75;;;;;;;;;;6248446;28;20132;-66
2023/10/03 11:02:41;;;;;;;12.13;4.90;;;;;;;;;;6253404;28;20045;-66
2023/10/03 11:05:50;;;;;;;8.05;4.55;;;;;;;;;;6252196;28;20049;-65
2023/10/03 11:08:52;;;;;;;10.75;4.78;;;;;;;;;;6249999;28;20033;-64
2023/10/03 11:11:55;;;;;;;9.38;4.88;;;;;;;;;;6251354;28;20053;-64
2023/10/03 11:14:57;;;;;;;9.38;4.18;;;;;;;;;;6252653;28;20038;-66
2023/10/03 11:17:59;;;;;;;7.60;3.90;;;;;;;;;;6249358;28;20046;-66
2023/10/03 11:21:04;;;;;;;12.05;4.35;;;;;;;;;;6252446;28;20183;-66
2023/10/03 11:24:18;;;;;;;9.75;4.50;;;;;;;;;;6246343;28;20202;-66
2023/10/03 11:27:26;;;;;;;9.32;4.53;;;;;;;;;;6235792;28;20149;-66
2023/10/03 11:30:29;;;;;;;10.02;4.72;;;;;;;;;;6247970;28;20057;-66
2023/10/03 11:33:47;;;;;;;12.48;4.20;;;;;;;;;;6234648;28;20042;-65
2023/10/03 11:36:51;;;;;;;9.18;4.50;;;;;;;;;;6246907;28;20058;-66
2023/10/03 11:39:53;;;;;;;9.32;3.50;;;;;;;;;;6238092;28;20061;-66
2023/10/03 11:42:58;;;;;;;13.45;4.35;;;;;;;;;;6237536;28;20716;-66
2023/10/03 11:46:01;;;;;;;10.30;4.85;;;;;;;;;;6255533;28;20126;-65
2023/10/03 11:49:03;;;;;;;11.00;4.97;;;;;;;;;;6244110;28;20826;-66
2023/10/03 11:52:06;;;;;;;12.27;4.78;;;;;;;;;;6256228;28;20191;-65
2023/10/03 11:55:09;;;;;;;9.85;4.00;;;;;;;;;;6252066;28;20113;-66
2023/10/03 11:58:11;;;;;;;12.45;4.60;;;;;;;;;;6250246;28;20050;-66
2023/10/03 12:01:13;;;;;;;10.35;4.00;;;;;;;;;;6248417;28;20147;-66
2023/10/03 12:04:15;;;;;;;10.25;6.40;;;;;;;;;;6257646;28;20434;-65
2023/10/03 12:07:17;;;;;;;12.73;4.95;;;;;;;;;;6254418;28;20045;-66
2023/10/03 12:10:20;;;;;;;9.65;4.47;;;;;;;;;;6261309;28;20666;-65
2023/10/03 12:13:22;;;;;;;13.05;4.72;;;;;;;;;;6255184;28;20387;-66
2023/10/03 12:16:25;;;;;;;12.18;4.90;;;;;;;;;;6241607;28;20064;-65
2023/10/03 12:19:27;;;;;;;16.35;5.30;;;;;;;;;;6256794;28;20147;-65
2023/10/03 12:22:29;;;;;;;10.57;4.50;;;;;;;;;;6254014;28;20052;-66
2023/10/03 12:25:31;;;;;;;9.38;3.78;;;;;;;;;;6257065;28;20049;-66
2023/10/03 12:28:33;;;;;;;13.45;5.00;;;;;;;;;;6262423;28;20041;-65
2023/10/03 12:31:35;;;;;;;10.77;4.05;;;;;;;;;;6255818;28;20049;-65
2023/10/03 12:34:37;;;;;;;12.15;6.57;;;;;;;;;;6254852;28;20449;-65
2023/10/03 12:37:40;;;;;;;9.32;4.32;;;;;;;;;;6255122;28;20063;-65
2023/10/03 12:40:43;;;;;;;12.75;4.75;;;;;;;;;;6248407;28;20063;-66
2023/10/03 12:43:49;;;;;;;15.82;4.70;;;;;;;;;;6263152;28;20053;-65
2023/10/03 12:46:51;;;;;;;9.45;4.43;;;;;;;;;;6243995;28;20048;-65
2023/10/03 12:49:54;;;;;;;12.43;5.47;;;;;;;;;;6257571;28;20060;-65
2023/10/03 12:52:58;;;;;;;9.60;5.35;;;;;;;;;;6250612;28;20438;-66
2023/10/03 12:56:02;;;;;;;10.15;3.97;;;;;;;;;;6255804;28;20541;-66
2023/10/03 12:59:04;;;;;;;12.63;6.20;;;;;;;;;;6248148;28;20057;-66
2023/10/03 13:02:06;;;;;;;11.40;4.50;;;;;;;;;;6257952;28;20690;-65
2023/10/03 13:05:12;;;;;;;9.45;4.05;;;;;;;;;;6246824;28;20058;-65
2023/10/03 13:08:14;;;;;;;8.70;4.22;;;;;;;;;;6254961;28;20038;-66
2023/10/03 13:11:17;;;;;;;10.77;4.57;;;;;;;;;;6242447;28;20041;-65
2023/10/03 13:14:19;;;;;;;13.48;4.90;;;;;;;;;;6258510;28;20120;-66
2023/10/03 13:17:22;;;;;;;10.38;4.50;;;;;;;;;;6249695;28;20049;-66
2023/10/03 13:20:27;;;;;;;9.45;4.50;;;;;;;;;;6251861;28;20048;-66
2023/10/03 13:23:31;;;;;;;10.38;4.72;;;;;;;;;;6254321;28;20179;-66
2023/10/03 13:26:34;;;;;;;10.23;4.97;;;;;;;;;;6258972;28;20071;-66
2023/10/03 13:29:36;;;;;;;10.90;4.97;;;;;;;;;;6251773;28;20045;-66
2023/10/03 13:32:39;;;;;;;13.75;4.03;;;;;;;;;;6258722;28;20052;-65
2023/10/03 13:35:42;;;;;;;11.18;4.43;;;;;;;;;;6260449;28;20045;-65
2023/10/03 13:38:44;;;;;;;14.57;5.00;;;;;;;;;;6256576;28;20039;-65
2023/10/03 13:41:48;;;;;;;12.55;5.47;;;;;;;;;;6247712;28;20092;-65
2023/10/03 13:44:53;;;;;;;13.18;5.07;;;;;;;;;;6250909;28;20045;-65
2023/10/03 13:47:56;;;;;;;11.10;4.72;;;;;;;;;;6256831;28;20126;-65
2023/10/03 13:51:02;;;;;;;9.50;4.68;;;;;;;;;;6259033;28;20057;-65
2023/10/03 13:54:05;;;;;;;11.55;4.80;;;;;;;;;;6255932;28;20052;-64
2023/10/03 13:57:07;;;;;;;10.57;4.47;;;;;;;;;;6256072;28;20049;-65
2023/10/03 14:00:13;;;;;;;9.73;4.45;;;;;;;;;;6258529;28;20149;-65
2023/10/03 14:03:19;;;;;;;12.93;4.57;;;;;;;;;;6255254;28;20056;-65
2023/10/03 14:06:22;;;;;;;12.90;4.63;;;;;;;;;;6256493;28;20045;-65
2023/10/03 14:09:26;;;;;;;11.45;4.88;;;;;;;;;;6260049;28;20048;-64
2023/10/03 14:12:28;;;;;;;12.38;5.00;;;;;;;;;;6252737;28;20057;-64
2023/10/03 14:15:33;;;;;;;9.02;4.63;;;;;;;;;;6252042;28;20060;-66
2023/10/03 14:18:35;;;;;;;;;;;;;;;;;;6253077;28;20033;-65
2023/10/03 14:21:37;;;;;;;;;;;;;;;;;;6255118;28;19925;-66
2023/10/03 14:24:47;;;;;;;14.38;4.47;;;;;;;;;;6251195;28;19925;-65
2023/10/03 14:27:49;;;;;;;9.45;5.30;;;;;;;;;;6236127;28;20041;-66
2023/10/03 14:30:53;;;;;;;13.15;5.28;;;;;;;;;;6248632;28;20045;-66
2023/10/03 14:33:56;;;;;;;11.30;5.38;;;;;;;;;;6254343;28;20060;-66
2023/10/03 14:36:58;;;;;;;10.38;4.38;;;;;;;;;;6257130;28;20061;-66
2023/10/03 14:40:00;;;;;;;12.23;6.80;;;;;;;;;;6255356;28;20939;-66
2023/10/03 14:43:03;;;;;;;10.48;4.50;;;;;;;;;;6249955;28;20129;-68
2023/10/03 14:46:06;;;;;;;14.55;8.90;;;;;;;;;;6251936;28;20049;-66
2023/10/03 14:49:08;;;;;;;18.70;9.65;;;;;;;;;;6253608;28;20414;-66
2023/10/03 14:52:10;;;;;;;12.07;4.78;;;;;;;;;;6236195;28;20053;-67
2023/10/03 14:55:16;;;;;;;12.23;5.32;;;;;;;;;;6245113;28;20053;-67
2023/10/03 14:58:19;;;;;;;12.60;5.53;;;;;;;;;;6253856;28;20041;-67
2023/10/03 15:01:22;;;;;;;12.65;6.13;;;;;;;;;;6245069;28;20469;-65
2023/10/03 15:04:24;;;;;;;15.27;6.47;;;;;;;;;;6248177;28;20048;-65
2023/10/03 15:07:26;;;;;;;14.93;5.30;;;;;;;;;;6248399;28;20038;-66
2023/10/03 15:10:30;;;;;;;9.95;4.90;;;;;;;;;;6254220;28;20508;-66
2023/10/03 15:13:33;;;;;;;9.48;4.47;;;;;;;;;;6252037;28;20160;-65
2023/10/03 15:16:35;;;;;;;12.32;5.05;;;;;;;;;;6251576;28;20116;-66
2023/10/03 15:19:37;;;;;;;20.13;6.85;;;;;;;;;;6244041;28;20053;-66
2023/10/03 15:22:39;;;;;;;15.45;7.82;;;;;;;;;;6244257;28;20078;-66
2023/10/03 15:25:44;;;;;;;15.38;4.70;;;;;;;;;;6251956;28;20060;-66
2023/10/03 15:28:48;;;;;;;10.95;5.32;;;;;;;;;;6254353;28;20482;-66
2023/10/03 15:31:50;;;;;;;9.65;4.30;;;;;;;;;;6252952;28;20096;-66
2023/10/03 15:34:53;;;;;;;10.85;5.30;;;;;;;;;;6259236;28;20037;-66
2023/10/03 15:37:55;;;;;;;12.75;5.93;;;;;;;;;;6230908;28;20049;-66
2023/10/03 15:40:57;;;;;;;12.38;5.68;;;;;;;;;;6234075;28;20063;-66
2023/10/03 15:43:59;;;;;;;11.60;6.07;;;;;;;;;;6250634;28;20076;-66
2023/10/03 15:47:01;;;;;;;10.00;4.80;;;;;;;;;;6247363;28;20052;-65
2023/10/03 15:50:04;;;;;;;14.13;4.95;;;;;;;;;;6249933;28;20146;-65
2023/10/03 15:53:10;;;;;;;15.20;5.95;;;;;;;;;;6261848;28;20049;-66
2023/10/03 15:56:16;;;;;;;35.03;18.90;;;;;;;;;;6251392;28;20051;-66
2023/10/03 15:59:19;;;;;;;87.20;45.35;;;;;;;;;;6258285;28;20078;-66
2023/10/03 16:02:21;;;;;;;113.30;55.55;;;;;;;;;;6255082;28;20165;-66
2023/10/03 16:05:24;;;;;;;71.93;49.15;;;;;;;;;;6259163;28;20037;-66
2023/10/03 16:08:29;;;;;;;41.80;26.98;;;;;;;;;;6264382;28;20076;-67
2023/10/03 16:11:31;;;;;;;46.72;33.28;;;;;;;;;;6254569;28;20084;-66
2023/10/03 16:14:33;;;;;;;52.45;40.22;;;;;;;;;;6257971;28;20480;-66
2023/10/03 16:17:37;;;;;;;18.10;11.57;;;;;;;;;;6261739;28;20815;-68
2023/10/03 16:20:41;;;;;;;84.25;71.13;;;;;;;;;;6253417;28;20049;-67
2023/10/03 16:23:43;;;;;;;22.48;10.70;;;;;;;;;;6252571;28;20045;-67
2023/10/03 16:26:45;;;;;;;18.83;7.32;;;;;;;;;;6251969;28;20057;-66
2023/10/03 16:29:48;;;;;;;16.20;9.23;;;;;;;;;;6249272;28;20613;-66
2023/10/03 16:32:50;;;;;;;15.07;7.82;;;;;;;;;;6256096;28;20045;-67
2023/10/03 16:35:52;;;;;;;13.70;6.80;;;;;;;;;;6259698;28;20135;-67
2023/10/03 16:38:54;;;;;;;9.52;5.35;;;;;;;;;;6261461;28;20041;-68
2023/10/03 16:41:59;;;;;;;15.48;6.25;;;;;;;;;;6250634;28;20045;-67
2023/10/03 16:45:02;;;;;;;12.50;5.05;;;;;;;;;;6256531;28;20052;-67
2023/10/03 16:48:08;;;;;;;12.18;6.35;;;;;;;;;;6256927;28;20052;-67
2023/10/03 16:51:11;;;;;;;18.17;6.93;;;;;;;;;;6237850;28;20053;-66
2023/10/03 16:54:14;;;;;;;16.02;6.93;;;;;;;;;;6260756;28;20132;-66
2023/10/03 16:57:16;;;;;;;12.93;5.80;;;;;;;;;;6252928;28;20481;-66
2023/10/03 17:00:19;;;;;;;15.23;6.80;;;;;;;;;;6254270;28;20057;-66
2023/10/03 17:03:21;;;;;;;17.33;5.80;;;;;;;;;;6252607;28;20064;-67
2023/10/03 17:06:25;;;;;;;12.73;6.30;;;;;;;;;;6250722;28;20080;-67
2023/10/03 17:09:27;;;;;;;11.35;5.85;;;;;;;;;;6259031;28;20041;-67
2023/10/03 17:12:35;;;;;;;9.98;5.07;;;;;;;;;;6244876;28;20098;-67
2023/10/03 17:15:39;;;;;;;16.67;5.95;;;;;;;;;;6243490;28;20080;-67
2023/10/03 17:18:41;;;;;;;10.50;5.25;;;;;;;;;;6250366;28;20461;-67
2023/10/03 17:21:43;;;;;;;11.43;4.85;;;;;;;;;;6257090;28;20049;-67
2023/10/03 17:24:45;;;;;;;9.13;4.78;;;;;;;;;;6259844;28;20052;-67
2023/10/03 17:27:47;;;;;;;12.38;5.03;;;;;;;;;;6248402;28;20128;-67
2023/10/03 17:30:49;;;;;;;15.52;5.03;;;;;;;;;;6246389;28;20049;-67
2023/10/03 17:33:52;;;;;;;12.75;6.72;;;;;;;;;;6256813;28;20123;-67
2023/10/03 17:36:55;;;;;;;13.15;6.13;;;;;;;;;;6252224;28;20052;-67
2023/10/03 17:39:57;;;;;;;14.55;7.13;;;;;;;;;;6257876;28;20438;-66
2023/10/03 17:42:59;;;;;;;13.20;5.70;;;;;;;;;;6254555;28;20079;-65
2023/10/03 17:46:05;;;;;;;12.80;4.95;;;;;;;;;;6255389;28;20106;-65
2023/10/03 17:49:08;;;;;;;10.48;4.65;;;;;;;;;;6251162;28;20052;-64
2023/10/03 17:52:10;;;;;;;12.02;4.90;;;;;;;;;;6249439;28;20046;-64
2023/10/03 17:55:12;;;;;;;9.68;4.88;;;;;;;;;;6257394;28;20048;-65
2023/10/03 17:58:16;;;;;;;10.68;5.30;;;;;;;;;;6258032;28;20049;-65
2023/10/03 18:01:25;;;;;;;10.77;6.60;;;;;;;;;;6252177;28;20742;-66
2023/10/03 18:04:30;;;;;;;9.02;4.30;;;;;;;;;;6252508;28;20048;-65
2023/10/03 18:07:33;;;;;;;12.02;5.82;;;;;;;;;;6246897;28;20459;-66
2023/10/03 18:10:35;;;;;;;11.38;5.68;;;;;;;;;;6249004;28;20045;-65
2023/10/03 18:13:37;;;;;;;14.50;7.82;;;;;;;;;;6248999;28;20461;-65
2023/10/03 18:16:39;;;;;;;12.30;7.28;;;;;;;;;;6257509;28;20064;-65
2023/10/03 18:19:41;;;;;;;7.78;4.38;;;;;;;;;;6254045;28;20704;-64